Time;durP1;ratioP1;P1;durP2;ratioP2;P2;SDS_P1;SDS_P2;PMS_P1;PMS_P2;Temp;Humidity;BMP_temperature;BMP_pressure;BME280_temperature;BME280_humidity;BME280_pressure;Samples;Min_cycle;Max_cycle;Signal;HPM_P1;HPM_P2
2021/12/11 00:02:22;;;;;;;8.98;4.00;;;1.30;99.90;;;;;;10372500;28;87102;-50
2021/12/11 00:07:26;;;;;;;9.80;4.45;;;1.20;99.90;;;;;;10373342;28;84955;-45
2021/12/11 00:12:32;;;;;;;7.15;3.55;;;1.10;99.90;;;;;;10370302;28;85001;-45
2021/12/11 00:17:34;;;;;;;7.25;3.88;;;1.10;99.90;;;;;;10374567;28;85016;-44
2021/12/11 00:22:35;;;;;;;7.85;3.70;;;1.10;99.90;;;;;;10373934;28;84869;-49
2021/12/11 00:27:38;;;;;;;8.23;4.60;;;1.10;99.90;;;;;;10371475;28;84068;-46
2021/12/11 00:32:40;;;;;;;7.85;3.53;;;1.10;99.90;;;;;;10370838;28;84644;-45
2021/12/11 00:37:41;;;;;;;14.63;4.72;;;1.00;99.90;;;;;;10368850;28;86868;-46
2021/12/11 00:42:51;;;;;;;7.15;4.10;;;1.00;99.90;;;;;;10369692;28;84311;-46
2021/12/11 00:48:06;;;;;;;15.45;4.78;;;0.90;99.90;;;;;;10370426;28;84268;-45
2021/12/11 00:53:08;;;;;;;6.10;3.80;;;0.90;99.90;;;;;;10370645;28;84911;-46
2021/12/11 00:58:23;;;;;;;8.15;3.45;;;0.80;99.90;;;;;;10370466;28;85084;-48
2021/12/11 01:03:39;;;;;;;5.28;3.13;;;0.90;99.90;;;;;;10370436;28;84911;-43
2021/12/11 01:08:44;;;;;;;11.07;4.75;;;0.90;99.90;;;;;;10369519;28;84845;-50
2021/12/11 01:13:55;;;;;;;12.98;4.70;;;0.90;99.90;;;;;;10369475;28;84146;-46
2021/12/11 01:18:57;;;;;;;7.35;3.80;;;0.80;99.90;;;;;;10369704;28;84008;-49
2021/12/11 01:29:07;;;;;;;6.80;3.33;;;0.70;99.90;;;;;;10368078;28;84099;-46
2021/12/11 01:34:10;;;;;;;10.95;4.78;;;0.70;99.90;;;;;;10384103;22;85649;-53
2021/12/11 01:39:14;;;;;;;6.75;4.07;;;0.60;99.90;;;;;;10369279;28;84251;-49
2021/12/11 01:44:22;;;;;;;9.38;3.88;;;0.60;99.90;;;;;;10369048;28;84922;-53
2021/12/11 01:49:23;;;;;;;11.60;4.50;;;0.60;99.90;;;;;;10366554;28;87787;-52
2021/12/11 01:54:31;;;;;;;7.50;4.10;;;0.70;99.90;;;;;;10368389;28;85124;-51
2021/12/11 01:59:37;;;;;;;8.40;3.80;;;0.70;99.90;;;;;;10368156;28;84135;-54
2021/12/11 02:04:42;;;;;;;6.97;3.70;;;0.70;99.90;;;;;;10371923;28;84310;-50
2021/12/11 02:09:50;;;;;;;11.00;4.20;;;0.80;99.90;;;;;;10369607;28;84087;-52
2021/12/11 02:14:54;;;;;;;7.18;3.30;;;0.70;99.90;;;;;;10369785;28;84262;-52
2021/12/11 02:19:57;;;;;;;9.38;3.97;;;0.60;99.90;;;;;;10368868;28;84790;-49
2021/12/11 02:25:03;;;;;;;6.60;3.20;;;0.60;99.90;;;;;;10367741;28;85658;-50
2021/12/11 02:30:29;;;;;;;6.07;3.00;;;0.60;99.90;;;;;;10368975;28;84926;-53
2021/12/11 02:35:40;;;;;;;7.15;3.20;;;0.60;99.90;;;;;;10368548;28;84920;-54
2021/12/11 02:40:52;;;;;;;9.55;3.80;;;0.60;99.90;;;;;;10369635;28;84848;-51
2021/12/11 02:46:24;;;;;;;8.07;4.22;;;0.60;99.90;;;;;;10367187;28;85405;-49
2021/12/11 02:51:30;;;;;;;8.35;3.42;;;0.60;99.90;;;;;;10366713;28;84753;-53
2021/12/11 02:56:36;;;;;;;8.75;4.35;;;0.60;99.90;;;;;;10368461;28;84139;-50
2021/12/11 03:01:45;;;;;;;11.25;4.35;;;0.60;99.90;;;;;;10368495;28;84618;-53
2021/12/11 03:06:49;;;;;;;9.40;3.60;;;0.60;99.90;;;;;;10367219;28;85201;-52
2021/12/11 03:11:53;;;;;;;10.07;4.70;;;0.50;99.90;;;;;;10367864;28;84874;-53
2021/12/11 03:16:55;;;;;;;7.22;4.55;;;0.70;99.90;;;;;;10367515;28;84175;-51
2021/12/11 03:21:58;;;;;;;7.82;3.67;;;0.60;99.90;;;;;;10367318;28;84998;-52
2021/12/11 03:26:59;;;;;;;5.68;3.63;;;0.60;99.90;;;;;;10367457;28;84872;-48
2021/12/11 03:32:01;;;;;;;9.18;4.97;;;0.50;99.90;;;;;;10372105;28;84860;-53
2021/12/11 03:37:06;;;;;;;8.60;3.97;;;0.60;99.90;;;;;;10373696;28;84986;-51
2021/12/11 03:42:13;;;;;;;10.43;4.45;;;0.60;99.90;;;;;;10374823;28;84825;-50
2021/12/11 03:47:21;;;;;;;6.32;3.90;;;0.60;99.90;;;;;;10373959;28;85928;-54
2021/12/11 03:52:22;;;;;;;13.20;4.00;;;0.50;99.90;;;;;;10374514;28;84820;-52
2021/12/11 03:57:27;;;;;;;6.95;4.13;;;0.50;99.90;;;;;;10374987;28;84118;-49
2021/12/11 04:02:33;;;;;;;8.50;3.92;;;0.40;99.90;;;;;;10375649;28;84995;-56
2021/12/11 04:07:42;;;;;;;6.63;3.83;;;0.30;99.90;;;;;;10375811;28;84081;-50
2021/12/11 04:12:44;;;;;;;8.85;3.80;;;0.30;99.90;;;;;;10373972;28;84969;-52
2021/12/11 04:17:45;;;;;;;8.63;3.53;;;0.30;99.90;;;;;;10375565;28;84946;-49
2021/12/11 04:22:46;;;;;;;12.55;4.45;;;0.40;99.90;;;;;;10375047;28;87757;-53
2021/12/11 04:27:47;;;;;;;13.10;4.50;;;0.50;99.90;;;;;;10374017;28;84119;-48
2021/12/11 04:32:49;;;;;;;10.07;5.15;;;0.50;99.90;;;;;;10371787;28;84031;-53
2021/12/11 04:37:49;;;;;;;8.63;4.40;;;0.40;99.90;;;;;;10373813;28;85107;-50
2021/12/11 04:43:00;;;;;;;7.90;4.50;;;0.40;99.90;;;;;;10371671;28;84147;-54
2021/12/11 04:48:14;;;;;;;8.18;4.63;;;0.30;99.90;;;;;;10372765;28;84142;-50
2021/12/11 04:53:36;;;;;;;6.13;3.35;;;0.30;99.90;;;;;;10372289;28;85017;-52
2021/12/11 05:09:20;;;;;;;9.93;3.92;;;0.20;99.90;;;;;;10372646;28;84036;-49
2021/12/11 05:14:23;;;;;;;9.60;4.53;;;0.20;99.90;;;;;;10372412;28;84955;-52
2021/12/11 05:19:24;;;;;;;7.60;4.63;;;0.10;99.90;;;;;;10372942;28;85113;-49
2021/12/11 05:24:24;;;;;;;10.73;5.18;;;0.00;99.90;;;;;;10371943;28;83996;-51
2021/12/11 05:29:25;;;;;;;10.38;4.45;;;-0.10;99.90;;;;;;10371667;28;84035;-50
2021/12/11 05:34:26;;;;;;;12.40;5.18;;;-0.20;99.90;;;;;;10370726;28;84174;-50
2021/12/11 05:39:27;;;;;;;7.25;3.85;;;-0.30;99.90;;;;;;10371046;28;84752;-48
2021/12/11 05:44:28;;;;;;;5.80;3.72;;;-0.40;99.90;;;;;;10370806;28;84924;-52
2021/12/11 05:49:29;;;;;;;6.18;3.88;;;-0.40;99.90;;;;;;10372265;28;84821;-50
2021/12/11 05:54:30;;;;;;;7.20;4.55;;;-0.40;99.90;;;;;;10370181;28;84096;-47
2021/12/11 05:59:31;;;;;;;13.70;4.38;;;-0.40;99.90;;;;;;10370175;28;84710;-49
2021/12/11 06:04:33;;;;;;;5.82;3.47;;;-0.40;99.90;;;;;;10369493;28;84090;-51
2021/12/11 06:09:36;;;;;;;11.18;4.25;;;-0.40;99.90;;;;;;10368709;28;86039;-53
2021/12/11 06:14:38;;;;;;;5.65;3.20;;;-0.40;99.90;;;;;;10369705;28;87092;-53
2021/12/11 06:19:42;;;;;;;7.38;3.78;;;-0.40;99.90;;;;;;10369755;28;84878;-54
2021/12/11 06:24:43;;;;;;;10.18;4.22;;;-0.50;99.90;;;;;;10368561;28;86082;-51
2021/12/11 06:29:45;;;;;;;8.32;3.65;;;-0.50;99.90;;;;;;10369324;28;84986;-51
2021/12/11 06:34:46;;;;;;;5.68;3.60;;;-0.50;99.90;;;;;;10367604;28;84111;-52
2021/12/11 06:39:49;;;;;;;5.47;3.63;;;-0.50;99.90;;;;;;10368990;28;84042;-53
2021/12/11 06:44:50;;;;;;;13.60;3.85;;;-0.50;99.90;;;;;;10368507;28;84763;-51
2021/12/11 06:49:51;;;;;;;6.25;3.50;;;-0.60;99.90;;;;;;10368176;28;85001;-52
2021/12/11 06:54:53;;;;;;;5.95;3.35;;;-0.80;99.90;;;;;;10368196;28;84913;-50
2021/12/11 06:59:54;;;;;;;8.07;3.72;;;-0.80;99.90;;;;;;10367643;28;84963;-49
2021/12/11 07:04:55;;;;;;;13.30;4.47;;;-0.80;99.90;;;;;;10371916;28;84011;-51
2021/12/11 07:09:56;;;;;;;6.68;4.15;;;-0.80;99.90;;;;;;10375374;28;84013;-55
2021/12/11 07:14:56;;;;;;;8.30;4.43;;;-0.80;99.90;;;;;;10375162;28;84724;-50
2021/12/11 07:19:57;;;;;;;6.75;4.25;;;-0.70;99.90;;;;;;10374332;28;84026;-49
2021/12/11 07:25:04;;;;;;;8.57;3.60;;;-0.70;99.90;;;;;;10374674;28;83980;-49
2021/12/11 07:30:05;;;;;;;10.40;4.30;;;-0.80;99.90;;;;;;10373803;28;84969;-51
2021/12/11 07:35:07;;;;;;;11.32;4.80;;;-0.80;99.90;;;;;;10389600;22;85706;-45
2021/12/11 07:40:10;;;;;;;6.50;3.65;;;-0.90;99.90;;;;;;10372041;28;86974;-45
2021/12/11 07:45:11;;;;;;;9.48;4.68;;;-0.90;99.90;;;;;;10395799;28;84005;-47
2021/12/11 07:50:12;;;;;;;9.48;4.53;;;-0.80;99.90;;;;;;10414512;28;84460;-45
2021/12/11 07:55:15;;;;;;;9.32;4.07;;;-0.80;99.90;;;;;;10413735;28;84882;-43
2021/12/11 08:00:23;;;;;;;8.93;3.70;;;-0.60;99.90;;;;;;10396569;28;87837;-46
2021/12/11 08:05:26;;;;;;;15.40;4.90;;;-0.60;99.90;;;;;;10415174;28;84002;-46
2021/12/11 08:10:29;;;;;;;12.02;4.85;;;-0.30;99.90;;;;;;10415543;28;84152;-53
2021/12/11 08:15:30;;;;;;;9.93;5.03;;;-0.30;99.90;;;;;;10412171;28;86907;-45
2021/12/11 08:20:32;;;;;;;9.18;4.53;;;-0.20;99.90;;;;;;10414169;28;84948;-47
2021/12/11 08:25:34;;;;;;;6.72;3.95;;;-0.20;99.90;;;;;;10413694;28;84227;-44
2021/12/11 08:30:38;;;;;;;9.55;4.53;;;-0.20;99.90;;;;;;10412701;28;84197;-47
2021/12/11 08:35:40;;;;;;;11.52;5.10;;;0.00;99.90;;;;;;10412376;28;84941;-45
2021/12/11 08:40:45;;;;;;;11.73;5.72;;;0.10;99.90;;;;;;10412743;28;84989;-47
2021/12/11 08:46:00;;;;;;;10.45;5.15;;;0.10;99.90;;;;;;10411544;28;85897;-44
2021/12/11 08:51:05;;;;;;;13.93;4.65;;;0.00;99.90;;;;;;10413426;28;84894;-51
2021/12/11 08:56:08;;;;;;;9.55;5.15;;;-0.10;99.90;;;;;;10394533;28;86432;-47
2021/12/11 09:01:35;;;;;;;7.30;5.00;;;-0.30;99.90;;;;;;10413141;28;84374;-47
2021/12/11 09:06:50;;;;;;;9.98;5.25;;;-0.40;99.90;;;;;;10412203;28;84918;-49
2021/12/11 09:11:57;;;;;;;9.98;5.20;;;-0.40;99.90;;;;;;10413830;28;84066;-45
2021/12/11 09:17:08;;;;;;;10.48;5.32;;;-0.40;99.90;;;;;;10412265;28;85044;-46
2021/12/11 09:22:14;;;;;;;13.30;5.20;;;-0.50;99.90;;;;;;10413135;28;84122;-47
2021/12/11 09:27:21;;;;;;;20.58;6.03;;;-0.40;99.90;;;;;;10410146;28;87131;-48
2021/12/11 09:32:37;;;;;;;11.50;5.97;;;-0.40;99.90;;;;;;10412742;28;84810;-45
2021/12/11 09:37:40;;;;;;;10.15;4.93;;;-0.20;99.90;;;;;;10411305;28;84219;-46
2021/12/11 09:42:41;;;;;;;11.88;5.20;;;-0.10;99.90;;;;;;10411646;28;84750;-44
2021/12/11 09:47:51;;;;;;;16.30;6.22;;;0.00;99.90;;;;;;10409524;28;86071;-44
2021/12/11 09:52:52;;;;;;;9.80;5.55;;;-0.20;99.90;;;;;;10410816;28;85054;-44
2021/12/11 09:57:56;;;;;;;12.00;5.72;;;-0.20;99.90;;;;;;10409600;28;85020;-51
2021/12/11 10:02:57;;;;;;;13.35;6.38;;;-0.20;99.90;;;;;;10410357;28;87110;-49
2021/12/11 10:13:26;;;;;;;17.80;6.68;;;0.00;99.90;;;;;;10409205;28;85963;-51
2021/12/11 10:18:29;;;;;;;20.42;8.48;;;0.10;99.90;;;;;;10410976;28;84676;-48
2021/12/11 10:23:33;;;;;;;20.48;7.47;;;0.10;99.90;;;;;;10409080;28;84610;-46
2021/12/11 10:28:33;;;;;;;21.02;9.27;;;0.10;99.90;;;;;;10410755;28;84242;-48
2021/12/11 10:33:35;;;;;;;16.27;7.43;;;0.20;99.90;;;;;;10410117;28;85129;-51
2021/12/11 10:38:37;;;;;;;28.77;9.48;;;0.20;99.90;;;;;;10408193;28;85231;-46
2021/12/11 10:43:42;;;;;;;25.50;9.20;;;0.40;99.90;;;;;;10410892;28;85032;-46
2021/12/11 10:48:44;;;;;;;25.83;8.38;;;0.50;99.90;;;;;;10410999;28;85045;-46
2021/12/11 10:53:46;;;;;;;33.67;11.07;;;0.60;99.90;;;;;;10410752;28;84130;-47
2021/12/11 10:58:59;;;;;;;30.08;10.65;;;0.80;99.90;;;;;;10410959;28;84924;-46
2021/12/11 11:04:05;;;;;;;25.55;9.80;;;1.00;99.90;;;;;;10410810;28;84928;-50
2021/12/11 11:09:08;;;;;;;22.73;9.20;;;0.90;99.90;;;;;;10409498;28;84994;-47
2021/12/11 11:14:10;;;;;;;29.90;11.93;;;1.00;99.90;;;;;;10398041;28;84392;-52
2021/12/11 11:19:10;;;;;;;27.25;9.25;;;1.20;99.90;;;;;;10391187;28;84717;-48
2021/12/11 11:24:13;;;;;;;28.05;10.23;;;1.40;99.90;;;;;;10400447;28;85384;-48
2021/12/11 11:29:17;;;;;;;35.33;10.70;;;1.40;99.90;;;;;;10396610;28;87155;-46
2021/12/11 11:34:20;;;;;;;36.05;12.07;;;1.60;99.90;;;;;;10373524;28;84968;-44
2021/12/11 11:39:23;;;;;;;24.58;9.88;;;1.60;99.90;;;;;;10365744;28;84932;-46
2021/12/11 11:44:27;;;;;;;37.10;11.45;;;1.50;99.90;;;;;;10378136;28;85185;-46
2021/12/11 11:49:28;;;;;;;32.63;10.27;;;1.40;99.90;;;;;;10405579;28;85283;-47
2021/12/11 11:54:29;;;;;;;35.72;10.00;;;1.40;99.90;;;;;;10394278;28;84250;-48
2021/12/11 11:59:30;;;;;;;33.38;11.57;;;1.60;99.90;;;;;;10392891;28;85035;-48
2021/12/11 12:04:33;;;;;;;29.98;10.52;;;1.60;99.90;;;;;;10411180;28;86433;-62
2021/12/11 12:09:40;;;;;;;24.45;9.45;;;1.70;99.90;;;;;;10401765;28;84250;-49
2021/12/11 12:14:44;;;;;;;29.95;9.35;;;1.80;99.90;;;;;;10404905;28;84975;-46
2021/12/11 12:19:45;;;;;;;60.13;18.90;;;1.90;99.90;;;;;;10395287;28;85012;-47
2021/12/11 12:24:51;;;;;;;43.10;12.80;;;1.90;99.90;;;;;;10426925;28;87236;-49
2021/12/11 12:29:53;;;;;;;35.92;11.93;;;2.00;99.90;;;;;;10388210;28;84578;-45
2021/12/11 12:34:56;;;;;;;40.38;11.93;;;2.10;99.90;;;;;;10412212;28;84763;-43
2021/12/11 12:40:00;;;;;;;36.22;12.43;;;2.10;99.90;;;;;;10410504;28;85311;-43
2021/12/11 12:45:19;;;;;;;35.78;11.90;;;2.20;99.90;;;;;;10402898;28;85247;-47
2021/12/11 12:50:25;;;;;;;35.75;10.98;;;2.30;99.90;;;;;;10384393;28;87128;-49
2021/12/11 12:55:46;;;;;;;34.15;10.02;;;2.30;99.90;;;;;;10410854;28;85126;-48
2021/12/11 13:00:53;;;;;;;27.60;10.43;;;2.30;99.90;;;;;;10412289;28;84834;-43
2021/12/11 13:05:58;;;;;;;42.42;11.45;;;2.50;99.90;;;;;;10413385;28;84754;-49
2021/12/11 13:11:04;;;;;;;37.60;11.32;;;2.50;99.90;;;;;;10411962;28;84841;-47
2021/12/11 13:16:12;;;;;;;39.22;10.98;;;2.50;99.90;;;;;;10408418;28;84921;-51
2021/12/11 13:21:33;;;;;;;34.47;10.65;;;2.70;99.90;;;;;;10410013;28;84926;-44
2021/12/11 13:26:36;;;;;;;45.50;12.80;;;2.70;99.90;;;;;;10407904;28;86941;-45
2021/12/11 13:31:43;;;;;;;42.30;10.82;;;2.70;99.90;;;;;;10411193;28;84917;-42
2021/12/11 13:36:45;;;;;;;36.13;11.52;;;2.70;99.90;;;;;;10420861;22;85734;-55
2021/12/11 13:41:49;;;;;;;34.60;10.85;;;2.70;99.90;;;;;;10414148;28;84854;-48
2021/12/11 13:46:50;;;;;;;40.50;10.60;;;2.80;99.90;;;;;;10410173;28;85768;-52
2021/12/11 13:51:51;;;;;;;37.67;10.43;;;3.00;99.90;;;;;;10411823;28;85051;-56
2021/12/11 13:56:57;;;;;;;43.13;10.13;;;3.00;99.90;;;;;;10411391;28;84903;-54
2021/12/11 14:01:58;;;;;;;35.67;10.10;;;3.00;99.90;;;;;;10412256;28;84133;-52
2021/12/11 14:07:21;;;;;;;39.40;9.75;;;2.90;99.90;;;;;;10407899;28;84327;-60
2021/12/11 14:12:24;;;;;;;42.83;12.23;;;2.90;99.90;;;;;;10407951;28;84926;-55
2021/12/11 14:17:27;;;;;;;41.97;10.82;;;2.90;99.90;;;;;;10401823;28;85203;-56
2021/12/11 14:22:28;;;;;;;42.80;11.90;;;2.80;99.90;;;;;;10411032;28;84146;-54
2021/12/11 14:27:29;;;;;;;39.55;11.90;;;2.80;99.90;;;;;;10408746;28;84839;-53
2021/12/11 14:32:34;;;;;;;45.53;12.77;;;2.70;99.90;;;;;;10411343;28;84814;-53
2021/12/11 14:37:35;;;;;;;46.15;12.80;;;2.70;99.90;;;;;;10404761;28;84985;-56
2021/12/11 14:42:36;;;;;;;35.42;12.05;;;2.60;99.90;;;;;;10406652;28;84035;-51
2021/12/11 14:47:37;;;;;;;41.40;12.40;;;2.60;99.90;;;;;;10408429;28;85206;-55
2021/12/11 14:52:38;;;;;;;48.58;13.88;;;2.60;99.90;;;;;;10388099;28;85059;-53
2021/12/11 14:57:39;;;;;;;57.20;14.10;;;2.60;99.90;;;;;;10406332;28;84336;-52
2021/12/11 15:02:42;;;;;;;45.22;13.43;;;2.80;99.90;;;;;;10407582;28;84365;-53
2021/12/11 15:07:44;;;;;;;45.25;13.77;;;2.70;99.90;;;;;;10409091;28;84733;-53
2021/12/11 15:12:45;;;;;;;48.20;12.40;;;2.70;99.90;;;;;;10407720;28;85006;-51
2021/12/11 15:17:46;;;;;;;42.45;12.30;;;2.70;99.90;;;;;;10405897;28;84242;-54
2021/12/11 15:22:47;;;;;;;40.47;13.40;;;2.60;99.90;;;;;;10400056;28;86887;-50
2021/12/11 15:27:49;;;;;;;41.55;12.98;;;2.60;99.90;;;;;;10410993;28;84997;-56
2021/12/11 15:32:50;;;;;;;49.25;12.13;;;2.60;99.90;;;;;;10410018;28;84892;-55
2021/12/11 15:37:51;;;;;;;59.75;14.50;;;2.60;99.90;;;;;;10408199;28;84351;-60
2021/12/11 15:42:52;;;;;;;42.88;14.85;;;2.60;99.90;;;;;;10410154;28;84391;-53
2021/12/11 15:47:54;;;;;;;57.33;16.02;;;2.60;99.90;;;;;;10414289;28;84032;-50
2021/12/11 15:52:56;;;;;;;46.63;13.77;;;2.60;99.90;;;;;;10414436;28;84027;-51
2021/12/11 15:57:58;;;;;;;45.45;11.13;;;2.70;99.90;;;;;;10415102;28;84092;-53
2021/12/11 16:02:58;;;;;;;49.13;12.88;;;2.70;99.90;;;;;;10415128;28;84268;-49
2021/12/11 16:07:59;;;;;;;45.42;13.65;;;2.80;99.90;;;;;;10412883;28;84913;-55
2021/12/11 16:13:00;;;;;;;40.40;12.00;;;2.60;99.90;;;;;;10414924;28;85343;-51
2021/12/11 16:18:01;;;;;;;59.88;15.05;;;2.70;99.90;;;;;;10413204;28;84218;-55
2021/12/11 16:23:03;;;;;;;35.63;12.93;;;2.70;99.90;;;;;;10410650;28;84979;-53
2021/12/11 16:28:07;;;;;;;40.78;12.50;;;2.80;99.90;;;;;;10414172;28;85067;-51
2021/12/11 16:33:11;;;;;;;52.25;13.73;;;2.80;99.90;;;;;;10412608;28;85007;-53
2021/12/11 16:38:14;;;;;;;43.45;12.18;;;2.80;99.90;;;;;;10410823;28;85087;-56
2021/12/11 16:43:19;;;;;;;43.28;13.68;;;2.90;99.90;;;;;;10409430;28;84262;-56
2021/12/11 16:48:22;;;;;;;45.95;13.27;;;3.10;99.90;;;;;;10413073;28;84200;-55
2021/12/11 16:53:26;;;;;;;47.78;11.38;;;3.10;99.90;;;;;;10409805;28;84288;-54
2021/12/11 16:58:31;;;;;;;34.92;10.35;;;3.20;99.90;;;;;;10412218;28;84332;-54
2021/12/11 17:03:33;;;;;;;37.70;11.80;;;3.30;99.90;;;;;;10409802;28;84010;-51
2021/12/11 17:08:33;;;;;;;39.22;11.73;;;3.40;99.90;;;;;;10411458;28;85011;-51
2021/12/11 17:13:34;;;;;;;38.95;10.95;;;3.40;99.90;;;;;;10399272;28;84199;-53
2021/12/11 17:18:38;;;;;;;42.75;11.35;;;3.30;99.90;;;;;;10412278;28;84205;-54
2021/12/11 17:23:40;;;;;;;44.10;10.82;;;3.40;99.90;;;;;;10410807;28;86011;-56
2021/12/11 17:28:56;;;;;;;35.63;9.95;;;3.30;99.90;;;;;;10416677;28;84966;-56
2021/12/11 17:33:57;;;;;;;32.33;10.73;;;3.40;99.90;;;;;;10402962;28;84091;-55
2021/12/11 17:38:59;;;;;;;24.98;8.27;;;3.40;99.90;;;;;;10404419;28;84307;-52
2021/12/11 17:44:01;;;;;;;25.17;7.32;;;3.40;99.90;;;;;;10412274;28;84055;-58
2021/12/11 17:49:03;;;;;;;26.75;8.15;;;3.20;99.90;;;;;;10409742;28;84840;-51
2021/12/11 17:54:07;;;;;;;22.35;6.97;;;3.20;99.90;;;;;;10409764;28;84796;-56
2021/12/11 17:59:08;;;;;;;24.42;7.70;;;3.10;99.90;;;;;;10407478;28;86528;-55
2021/12/11 18:04:19;;;;;;;27.13;8.18;;;3.10;99.90;;;;;;10405563;28;84977;-56
2021/12/11 18:09:25;;;;;;;21.95;8.48;;;3.10;99.90;;;;;;10406302;28;84564;-52
2021/12/11 18:14:33;;;;;;;26.02;6.85;;;3.20;99.90;;;;;;10400717;28;84201;-54
2021/12/11 18:19:58;;;;;;;28.25;8.05;;;3.10;99.90;;;;;;10410509;28;84312;-50
2021/12/11 18:25:03;;;;;;;22.67;7.43;;;3.00;99.90;;;;;;10404347;28;86132;-50
2021/12/11 18:30:08;;;;;;;23.33;6.68;;;3.10;99.90;;;;;;10410397;28;84923;-57
2021/12/11 18:35:18;;;;;;;19.95;6.70;;;3.20;99.90;;;;;;10406090;28;85677;-57
2021/12/11 18:40:25;;;;;;;30.05;8.43;;;3.30;99.90;;;;;;10402800;28;84610;-55
2021/12/11 18:45:33;;;;;;;25.70;8.38;;;3.40;99.90;;;;;;10409582;28;84023;-56
2021/12/11 18:50:35;;;;;;;27.80;8.48;;;3.50;99.90;;;;;;10409510;28;84802;-52
2021/12/11 18:55:42;;;;;;;25.75;8.63;;;3.50;99.90;;;;;;10407121;28;84785;-53
2021/12/11 19:00:51;;;;;;;25.05;8.18;;;3.50;99.90;;;;;;10405199;28;84225;-55
2021/12/11 19:05:56;;;;;;;32.20;9.38;;;3.60;99.90;;;;;;10416021;28;84959;-55
2021/12/11 19:11:10;;;;;;;37.50;9.02;;;3.60;99.90;;;;;;10402751;28;84991;-55
2021/12/11 19:16:11;;;;;;;26.85;8.73;;;3.70;99.90;;;;;;10379223;28;84744;-54
2021/12/11 19:21:14;;;;;;;32.42;9.48;;;3.70;99.90;;;;;;10382599;28;84369;-58
2021/12/11 19:26:15;;;;;;;27.98;10.30;;;3.70;99.90;;;;;;10405346;28;85334;-54
2021/12/11 19:31:20;;;;;;;31.23;9.52;;;3.70;99.90;;;;;;10415632;28;84494;-57
2021/12/11 19:36:24;;;;;;;31.02;9.77;;;3.70;99.90;;;;;;10386008;22;84862;-51
2021/12/11 19:41:27;;;;;;;29.30;10.02;;;3.70;99.90;;;;;;10347332;28;85114;-47
2021/12/11 19:46:28;;;;;;;27.85;9.45;;;3.70;99.90;;;;;;10375344;28;85026;-49
2021/12/11 19:51:32;;;;;;;27.75;9.63;;;3.80;99.90;;;;;;10382597;28;86781;-49
2021/12/11 19:56:35;;;;;;;31.75;9.90;;;4.00;99.90;;;;;;10373046;28;84918;-53
2021/12/11 20:01:38;;;;;;;31.00;9.52;;;4.00;99.90;;;;;;10374625;28;86649;-51
2021/12/11 20:06:47;;;;;;;28.40;10.50;;;4.00;99.90;;;;;;10370585;28;86335;-52
2021/12/11 20:11:56;;;;;;;35.40;9.60;;;4.00;99.90;;;;;;10380467;28;84218;-53
2021/12/11 20:16:57;;;;;;;40.08;12.45;;;4.00;99.90;;;;;;10406356;28;84827;-50
2021/12/11 20:22:06;;;;;;;43.03;13.18;;;4.00;99.90;;;;;;10374102;28;84904;-57
2021/12/11 20:27:08;;;;;;;40.22;12.60;;;4.20;99.90;;;;;;10377163;28;84127;-53
2021/12/11 20:32:12;;;;;;;42.90;12.35;;;4.20;99.90;;;;;;10393502;28;84972;-52
2021/12/11 20:37:16;;;;;;;44.25;13.75;;;4.20;99.90;;;;;;10380278;28;84250;-52
2021/12/11 20:42:20;;;;;;;48.33;14.55;;;4.20;99.90;;;;;;10396392;28;85581;-50
2021/12/11 20:47:22;;;;;;;42.17;14.68;;;4.30;99.90;;;;;;10375121;28;87125;-52
2021/12/11 20:52:26;;;;;;;53.25;14.50;;;4.30;99.90;;;;;;10387766;28;86687;-50
2021/12/11 20:57:27;;;;;;;43.42;13.60;;;4.40;99.90;;;;;;10392001;28;84937;-48
2021/12/11 21:02:30;;;;;;;55.85;15.07;;;4.40;99.90;;;;;;10397377;28;84806;-48
2021/12/11 21:07:34;;;;;;;54.00;14.07;;;4.40;99.90;;;;;;10376234;28;86665;-48
2021/12/11 21:12:53;;;;;;;42.42;14.98;;;4.40;99.90;;;;;;10373543;28;84123;-50
2021/12/11 21:17:59;;;;;;;43.75;14.35;;;4.40;99.90;;;;;;10372086;28;83995;-49
2021/12/11 21:23:02;;;;;;;46.72;14.60;;;4.40;99.90;;;;;;10372432;28;85083;-52
2021/12/11 21:28:09;;;;;;;40.05;12.50;;;4.40;99.90;;;;;;10370700;28;86221;-52
2021/12/11 21:33:15;;;;;;;45.30;12.95;;;4.40;99.90;;;;;;10372173;28;84135;-52
2021/12/11 21:38:18;;;;;;;35.20;12.35;;;4.40;99.90;;;;;;10371075;28;84926;-48
2021/12/11 21:43:23;;;;;;;40.08;11.45;;;4.40;99.90;;;;;;10371511;28;85074;-48
2021/12/11 21:48:38;;;;;;;36.67;10.88;;;4.40;99.90;;;;;;10370794;28;85923;-51
2021/12/11 21:53:41;;;;;;;34.13;11.60;;;4.50;99.90;;;;;;10369957;28;85004;-50
2021/12/11 21:58:50;;;;;;;29.95;9.75;;;4.50;99.90;;;;;;10370890;28;85106;-48
2021/12/11 22:03:55;;;;;;;26.17;10.82;;;4.50;99.90;;;;;;10371143;28;85444;-48
2021/12/11 22:08:58;;;;;;;36.58;10.13;;;4.40;99.90;;;;;;10368972;28;86246;-48
2021/12/11 22:14:01;;;;;;;20.42;8.50;;;4.40;99.90;;;;;;10370212;28;84127;-48
2021/12/11 22:19:07;;;;;;;27.40;10.07;;;4.40;99.90;;;;;;10381815;28;84313;-52
2021/12/11 22:24:15;;;;;;;26.10;10.02;;;4.30;99.90;;;;;;10410517;28;84218;-49
2021/12/11 22:29:23;;;;;;;26.05;9.45;;;4.30;99.90;;;;;;10402925;28;84158;-50
2021/12/11 22:34:25;;;;;;;20.92;8.02;;;4.30;99.90;;;;;;10408722;28;85142;-48
2021/12/11 22:39:30;;;;;;;19.85;9.30;;;4.30;99.90;;;;;;10410516;28;86672;-49
2021/12/11 22:44:36;;;;;;;19.10;9.40;;;4.30;99.90;;;;;;10410133;28;84131;-52
2021/12/11 22:49:39;;;;;;;19.42;7.57;;;4.30;99.90;;;;;;10410429;28;84069;-49
2021/12/11 22:54:43;;;;;;;23.88;10.57;;;4.30;99.90;;;;;;10408060;28;85817;-50
2021/12/11 22:59:46;;;;;;;18.02;8.23;;;4.30;99.90;;;;;;10408233;28;85897;-48
2021/12/11 23:05:03;;;;;;;18.38;8.50;;;4.50;99.90;;;;;;10391462;28;85878;-47
2021/12/11 23:10:14;;;;;;;23.42;8.65;;;4.50;99.90;;;;;;10409665;28;85126;-48
2021/12/11 23:15:23;;;;;;;23.70;8.98;;;4.50;99.90;;;;;;10408975;28;84753;-50
2021/12/11 23:20:36;;;;;;;21.55;8.13;;;4.50;99.90;;;;;;10409363;28;84035;-48
2021/12/11 23:25:53;;;;;;;13.93;6.57;;;4.50;99.90;;;;;;10408669;28;84906;-52
2021/12/11 23:31:11;;;;;;;24.80;6.78;;;4.50;99.90;;;;;;10408116;28;84761;-50
2021/12/11 23:36:17;;;;;;;13.13;6.60;;;4.60;99.90;;;;;;10396541;28;84100;-50
2021/12/11 23:41:35;;;;;;;17.55;6.97;;;4.60;99.90;;;;;;10398556;28;85783;-52
2021/12/11 23:46:36;;;;;;;16.83;6.15;;;4.60;99.90;;;;;;10404600;28;84045;-47
2021/12/11 23:51:40;;;;;;;17.85;7.00;;;4.60;99.90;;;;;;10417700;28;85219;-49
2021/12/11 23:56:44;;;;;;;19.83;7.15;;;4.60;99.90;;;;;;10414524;28;85260;-50
